sensor_id;sensor_type;location;lat;lon;timestamp;temperature;humidity
42841;DHT22;28491;46.898;7.660;2023-01-05T00:01:27;7.20;99.90
42841;DHT22;28491;46.898;7.660;2023-01-05T00:03:52;7.20;99.90
42841;DHT22;28491;46.898;7.660;2023-01-05T00:06:18;7.20;99.90
42841;DHT22;28491;46.898;7.660;2023-01-05T00:08:44;7.10;99.90
42841;DHT22;28491;46.898;7.660;2023-01-05T00:11:12;7.00;99.90
42841;DHT22;28491;46.898;7.660;2023-01-05T00:13:57;7.00;99.90
42841;DHT22;28491;46.898;7.660;2023-01-05T00:16:42;7.00;99.90
42841;DHT22;28491;46.898;7.660;2023-01-05T00:19:26;6.90;99.90
42841;DHT22;28491;46.898;7.660;2023-01-05T00:22:19;6.90;99.90
42841;DHT22;28491;46.898;7.660;2023-01-05T00:25:05;6.90;99.90
42841;DHT22;28491;46.898;7.660;2023-01-05T00:27:32;6.90;99.90
42841;DHT22;28491;46.898;7.660;2023-01-05T00:29:58;7.00;99.90
42841;DHT22;28491;46.898;7.660;2023-01-05T00:32:24;7.00;99.90
42841;DHT22;28491;46.898;7.660;2023-01-05T00:34:52;7.00;99.90
42841;DHT22;28491;46.898;7.660;2023-01-05T00:37:21;7.00;99.90
42841;DHT22;28491;46.898;7.660;2023-01-05T00:39:47;7.00;99.90
42841;DHT22;28491;46.898;7.660;2023-01-05T00:42:12;7.00;99.90
42841;DHT22;28491;46.898;7.660;2023-01-05T00:44:38;7.00;99.90
42841;DHT22;28491;46.898;7.660;2023-01-05T00:47:03;7.00;99.90
42841;DHT22;28491;46.898;7.660;2023-01-05T00:49:30;7.00;99.90
42841;DHT22;28491;46.898;7.660;2023-01-05T00:51:55;7.00;99.90
42841;DHT22;28491;46.898;7.660;2023-01-05T00:54:21;7.00;99.90
42841;DHT22;28491;46.898;7.660;2023-01-05T00:56:47;7.00;99.90
42841;DHT22;28491;46.898;7.660;2023-01-05T00:59:16;7.00;99.90
42841;DHT22;28491;46.898;7.660;2023-01-05T01:01:45;7.00;99.90
42841;DHT22;28491;46.898;7.660;2023-01-05T01:04:11;7.00;99.90
42841;DHT22;28491;46.898;7.660;2023-01-05T01:06:36;6.90;99.90
42841;DHT22;28491;46.898;7.660;2023-01-05T01:09:02;6.90;99.90
42841;DHT22;28491;46.898;7.660;2023-01-05T01:11:28;6.90;99.90
42841;DHT22;28491;46.898;7.660;2023-01-05T01:13:53;6.90;99.90
42841;DHT22;28491;46.898;7.660;2023-01-05T01:16:19;6.90;99.90
42841;DHT22;28491;46.898;7.660;2023-01-05T01:18:44;6.90;99.90
42841;DHT22;28491;46.898;7.660;2023-01-05T01:21:10;6.90;99.90
42841;DHT22;28491;46.898;7.660;2023-01-05T01:23:36;6.90;99.90
42841;DHT22;28491;46.898;7.660;2023-01-05T01:26:06;6.90;99.90
42841;DHT22;28491;46.898;7.660;2023-01-05T01:28:33;6.90;99.90
42841;DHT22;28491;46.898;7.660;2023-01-05T01:30:59;7.00;99.90
42841;DHT22;28491;46.898;7.660;2023-01-05T01:33:25;7.00;99.90
42841;DHT22;28491;46.898;7.660;2023-01-05T01:35:51;7.00;99.90
42841;DHT22;28491;46.898;7.660;2023-01-05T01:38:16;7.00;99.90
42841;DHT22;28491;46.898;7.660;2023-01-05T01:40:44;7.00;99.90
42841;DHT22;28491;46.898;7.660;2023-01-05T01:43:14;6.90;99.90
42841;DHT22;28491;46.898;7.660;2023-01-05T01:45:39;6.90;99.90
42841;DHT22;28491;46.898;7.660;2023-01-05T01:48:06;6.90;99.90
42841;DHT22;28491;46.898;7.660;2023-01-05T01:50:46;6.90;99.90
42841;DHT22;28491;46.898;7.660;2023-01-05T01:53:38;6.80;99.90
42841;DHT22;28491;46.898;7.660;2023-01-05T01:56:08;6.90;99.90
42841;DHT22;28491;46.898;7.660;2023-01-05T01:58:34;6.90;99.90
42841;DHT22;28491;46.898;7.660;2023-01-05T02:01:00;6.90;99.90
42841;DHT22;28491;46.898;7.660;2023-01-05T02:03:27;6.90;99.90
42841;DHT22;28491;46.898;7.660;2023-01-05T02:05:53;6.80;99.90
42841;DHT22;28491;46.898;7.660;2023-01-05T02:08:19;6.80;99.90
42841;DHT22;28491;46.898;7.660;2023-01-05T02:11:21;6.80;99.90
42841;DHT22;28491;46.898;7.660;2023-01-05T02:25:05;6.80;99.90
42841;DHT22;28491;46.898;7.660;2023-01-05T02:30:09;6.80;99.90
42841;DHT22;28491;46.898;7.660;2023-01-05T02:33:05;6.80;99.90
42841;DHT22;28491;46.898;7.660;2023-01-05T02:38:24;6.80;99.90
42841;DHT22;28491;46.898;7.660;2023-01-05T02:40:56;6.80;99.90
42841;DHT22;28491;46.898;7.660;2023-01-05T02:43:23;6.80;99.90
42841;DHT22;28491;46.898;7.660;2023-01-05T02:45:49;6.80;99.90
42841;DHT22;28491;46.898;7.660;2023-01-05T02:48:15;6.80;99.90
42841;DHT22;28491;46.898;7.660;2023-01-05T02:51:04;6.80;99.90
42841;DHT22;28491;46.898;7.660;2023-01-05T02:53:39;6.80;99.90
42841;DHT22;28491;46.898;7.660;2023-01-05T02:56:13;6.80;99.90
42841;DHT22;28491;46.898;7.660;2023-01-05T02:58:47;6.80;99.90
42841;DHT22;28491;46.898;7.660;2023-01-05T03:01:17;6.80;99.90
42841;DHT22;28491;46.898;7.660;2023-01-05T03:03:48;6.80;99.90
42841;DHT22;28491;46.898;7.660;2023-01-05T03:06:29;6.80;99.90
42841;DHT22;28491;46.898;7.660;2023-01-05T03:09:00;6.90;99.90
42841;DHT22;28491;46.898;7.660;2023-01-05T03:11:29;6.80;99.90
42841;DHT22;28491;46.898;7.660;2023-01-05T03:14:22;6.80;99.90
42841;DHT22;28491;46.898;7.660;2023-01-05T03:16:50;6.90;99.90
42841;DHT22;28491;46.898;7.660;2023-01-05T03:19:19;6.80;99.90
42841;DHT22;28491;46.898;7.660;2023-01-05T03:22:10;6.80;99.90
42841;DHT22;28491;46.898;7.660;2023-01-05T03:24:56;6.80;99.90
42841;DHT22;28491;46.898;7.660;2023-01-05T03:27:41;6.80;99.90
42841;DHT22;28491;46.898;7.660;2023-01-05T03:30:38;6.80;99.90
42841;DHT22;28491;46.898;7.660;2023-01-05T03:33:36;6.80;99.90
42841;DHT22;28491;46.898;7.660;2023-01-05T03:36:26;6.90;99.90
42841;DHT22;28491;46.898;7.660;2023-01-05T03:38:55;6.80;99.90
42841;DHT22;28491;46.898;7.660;2023-01-05T03:41:22;6.80;99.90
42841;DHT22;28491;46.898;7.660;2023-01-05T03:43:49;6.80;99.90
42841;DHT22;28491;46.898;7.660;2023-01-05T03:46:19;6.80;99.90
42841;DHT22;28491;46.898;7.660;2023-01-05T03:48:45;6.80;99.90
42841;DHT22;28491;46.898;7.660;2023-01-05T03:51:10;6.80;99.90
42841;DHT22;28491;46.898;7.660;2023-01-05T03:53:37;6.80;99.90
42841;DHT22;28491;46.898;7.660;2023-01-05T03:56:03;6.90;99.90
42841;DHT22;28491;46.898;7.660;2023-01-05T03:58:29;6.80;99.90
42841;DHT22;28491;46.898;7.660;2023-01-05T04:00:54;6.90;99.90
42841;DHT22;28491;46.898;7.660;2023-01-05T04:03:20;6.90;99.90
42841;DHT22;28491;46.898;7.660;2023-01-05T04:05:45;6.90;99.90
42841;DHT22;28491;46.898;7.660;2023-01-05T04:08:11;6.90;99.90
42841;DHT22;28491;46.898;7.660;2023-01-05T04:10:36;6.90;99.90
42841;DHT22;28491;46.898;7.660;2023-01-05T04:13:02;6.90;99.90
42841;DHT22;28491;46.898;7.660;2023-01-05T04:15:27;6.90;99.90
42841;DHT22;28491;46.898;7.660;2023-01-05T04:17:53;6.90;99.90
42841;DHT22;28491;46.898;7.660;2023-01-05T04:20:18;6.90;99.90
42841;DHT22;28491;46.898;7.660;2023-01-05T04:22:44;6.90;99.90
42841;DHT22;28491;46.898;7.660;2023-01-05T04:25:10;6.90;99.90
42841;DHT22;28491;46.898;7.660;2023-01-05T04:27:35;6.90;99.90
42841;DHT22;28491;46.898;7.660;2023-01-05T04:30:01;6.90;99.90
42841;DHT22;28491;46.898;7.660;2023-01-05T04:32:26;6.90;99.90
42841;DHT22;28491;46.898;7.660;2023-01-05T04:34:52;6.90;99.90
42841;DHT22;28491;46.898;7.660;2023-01-05T04:37:17;6.90;99.90
42841;DHT22;28491;46.898;7.660;2023-01-05T04:39:43;6.90;99.90
42841;DHT22;28491;46.898;7.660;2023-01-05T04:42:08;6.90;99.90
42841;DHT22;28491;46.898;7.660;2023-01-05T04:44:34;6.90;99.90
42841;DHT22;28491;46.898;7.660;2023-01-05T04:46:59;6.90;99.90
42841;DHT22;28491;46.898;7.660;2023-01-05T04:49:25;6.90;99.90
42841;DHT22;28491;46.898;7.660;2023-01-05T04:51:50;7.00;99.90
42841;DHT22;28491;46.898;7.660;2023-01-05T04:54:16;7.00;99.90
42841;DHT22;28491;46.898;7.660;2023-01-05T04:56:42;7.00;99.90
42841;DHT22;28491;46.898;7.660;2023-01-05T04:59:07;7.00;99.90
42841;DHT22;28491;46.898;7.660;2023-01-05T05:01:33;7.00;99.90
42841;DHT22;28491;46.898;7.660;2023-01-05T05:03:58;6.90;99.90
42841;DHT22;28491;46.898;7.660;2023-01-05T05:06:24;7.00;99.90
42841;DHT22;28491;46.898;7.660;2023-01-05T05:08:50;7.00;99.90
42841;DHT22;28491;46.898;7.660;2023-01-05T05:11:15;7.00;99.90
42841;DHT22;28491;46.898;7.660;2023-01-05T05:13:41;7.00;99.90
42841;DHT22;28491;46.898;7.660;2023-01-05T05:16:06;7.00;99.90
42841;DHT22;28491;46.898;7.660;2023-01-05T05:18:32;7.00;99.90
42841;DHT22;28491;46.898;7.660;2023-01-05T05:20:58;7.00;99.90
42841;DHT22;28491;46.898;7.660;2023-01-05T05:23:23;7.00;99.90
42841;DHT22;28491;46.898;7.660;2023-01-05T05:25:50;7.00;99.90
42841;DHT22;28491;46.898;7.660;2023-01-05T05:28:16;7.00;99.90
42841;DHT22;28491;46.898;7.660;2023-01-05T05:30:41;7.00;99.90
42841;DHT22;28491;46.898;7.660;2023-01-05T05:33:07;7.00;99.90
42841;DHT22;28491;46.898;7.660;2023-01-05T05:35:32;6.90;99.90
42841;DHT22;28491;46.898;7.660;2023-01-05T05:37:58;6.90;99.90
42841;DHT22;28491;46.898;7.660;2023-01-05T05:40:24;6.90;99.90
42841;DHT22;28491;46.898;7.660;2023-01-05T05:42:50;6.90;99.90
42841;DHT22;28491;46.898;7.660;2023-01-05T05:45:16;6.90;99.90
42841;DHT22;28491;46.898;7.660;2023-01-05T05:47:42;7.00;99.90
42841;DHT22;28491;46.898;7.660;2023-01-05T05:50:08;7.00;99.90
42841;DHT22;28491;46.898;7.660;2023-01-05T05:52:33;7.00;99.90
42841;DHT22;28491;46.898;7.660;2023-01-05T05:54:59;7.00;99.90
42841;DHT22;28491;46.898;7.660;2023-01-05T05:57:24;7.00;99.90
42841;DHT22;28491;46.898;7.660;2023-01-05T05:59:50;7.00;99.90
42841;DHT22;28491;46.898;7.660;2023-01-05T06:02:16;7.00;99.90
42841;DHT22;28491;46.898;7.660;2023-01-05T06:04:42;7.10;99.90
42841;DHT22;28491;46.898;7.660;2023-01-05T06:07:07;7.10;99.90
42841;DHT22;28491;46.898;7.660;2023-01-05T06:09:34;7.10;99.90
42841;DHT22;28491;46.898;7.660;2023-01-05T06:11:59;7.10;99.90
42841;DHT22;28491;46.898;7.660;2023-01-05T06:14:25;7.10;99.90
42841;DHT22;28491;46.898;7.660;2023-01-05T06:16:50;7.10;99.90
42841;DHT22;28491;46.898;7.660;2023-01-05T06:19:16;7.20;99.90
42841;DHT22;28491;46.898;7.660;2023-01-05T06:21:41;7.20;99.90
42841;DHT22;28491;46.898;7.660;2023-01-05T06:24:07;7.20;99.90
42841;DHT22;28491;46.898;7.660;2023-01-05T06:26:32;7.10;99.90
42841;DHT22;28491;46.898;7.660;2023-01-05T06:28:58;7.10;99.90
42841;DHT22;28491;46.898;7.660;2023-01-05T06:31:23;7.10;99.90
42841;DHT22;28491;46.898;7.660;2023-01-05T06:33:49;7.10;99.90
42841;DHT22;28491;46.898;7.660;2023-01-05T06:36:14;7.10;99.90
42841;DHT22;28491;46.898;7.660;2023-01-05T06:38:40;7.20;99.90
42841;DHT22;28491;46.898;7.660;2023-01-05T06:41:06;7.20;99.90
42841;DHT22;28491;46.898;7.660;2023-01-05T06:43:31;7.20;99.90
42841;DHT22;28491;46.898;7.660;2023-01-05T06:45:57;7.20;99.90
42841;DHT22;28491;46.898;7.660;2023-01-05T06:48:23;7.30;99.90
42841;DHT22;28491;46.898;7.660;2023-01-05T06:50:48;7.30;99.90
42841;DHT22;28491;46.898;7.660;2023-01-05T06:53:14;7.30;99.90
42841;DHT22;28491;46.898;7.660;2023-01-05T06:55:39;7.30;99.90
42841;DHT22;28491;46.898;7.660;2023-01-05T06:58:05;7.30;99.90
42841;DHT22;28491;46.898;7.660;2023-01-05T07:00:30;7.40;99.90
42841;DHT22;28491;46.898;7.660;2023-01-05T07:02:56;7.40;99.90
42841;DHT22;28491;46.898;7.660;2023-01-05T07:05:22;7.40;99.90
42841;DHT22;28491;46.898;7.660;2023-01-05T07:07:49;7.40;99.90
42841;DHT22;28491;46.898;7.660;2023-01-05T07:10:14;7.40;99.90
42841;DHT22;28491;46.898;7.660;2023-01-05T07:12:40;7.40;99.90
42841;DHT22;28491;46.898;7.660;2023-01-05T07:15:06;7.40;99.90
42841;DHT22;28491;46.898;7.660;2023-01-05T07:17:32;7.30;99.90
42841;DHT22;28491;46.898;7.660;2023-01-05T07:19:57;7.40;99.90
42841;DHT22;28491;46.898;7.660;2023-01-05T07:22:23;7.40;99.90
42841;DHT22;28491;46.898;7.660;2023-01-05T07:24:49;7.40;99.90
42841;DHT22;28491;46.898;7.660;2023-01-05T07:27:14;7.40;99.90
42841;DHT22;28491;46.898;7.660;2023-01-05T07:29:39;7.40;99.90
42841;DHT22;28491;46.898;7.660;2023-01-05T07:32:05;7.40;99.90
42841;DHT22;28491;46.898;7.660;2023-01-05T07:34:31;7.40;99.90
42841;DHT22;28491;46.898;7.660;2023-01-05T07:36:56;7.50;99.90
42841;DHT22;28491;46.898;7.660;2023-01-05T07:39:22;7.50;99.90
42841;DHT22;28491;46.898;7.660;2023-01-05T07:41:48;7.50;99.90
42841;DHT22;28491;46.898;7.660;2023-01-05T07:44:13;7.50;99.90
42841;DHT22;28491;46.898;7.660;2023-01-05T07:46:39;7.50;99.90
42841;DHT22;28491;46.898;7.660;2023-01-05T07:49:04;7.50;99.90
42841;DHT22;28491;46.898;7.660;2023-01-05T07:51:30;7.50;99.90
42841;DHT22;28491;46.898;7.660;2023-01-05T07:53:56;7.50;99.90
42841;DHT22;28491;46.898;7.660;2023-01-05T07:56:22;7.50;99.90
42841;DHT22;28491;46.898;7.660;2023-01-05T07:58:47;7.50;99.90
42841;DHT22;28491;46.898;7.660;2023-01-05T08:01:14;7.50;99.90
42841;DHT22;28491;46.898;7.660;2023-01-05T08:03:41;7.60;99.90
42841;DHT22;28491;46.898;7.660;2023-01-05T08:06:12;7.60;99.90
42841;DHT22;28491;46.898;7.660;2023-01-05T08:08:38;7.60;99.90
42841;DHT22;28491;46.898;7.660;2023-01-05T08:11:04;7.60;99.90
42841;DHT22;28491;46.898;7.660;2023-01-05T08:13:30;7.70;99.90
42841;DHT22;28491;46.898;7.660;2023-01-05T08:16:14;7.70;99.90
42841;DHT22;28491;46.898;7.660;2023-01-05T08:18:40;7.70;99.90
42841;DHT22;28491;46.898;7.660;2023-01-05T08:21:06;7.70;99.90
42841;DHT22;28491;46.898;7.660;2023-01-05T08:23:33;7.70;99.90
42841;DHT22;28491;46.898;7.660;2023-01-05T08:26:07;7.70;99.90
42841;DHT22;28491;46.898;7.660;2023-01-05T08:28:34;7.70;99.90
42841;DHT22;28491;46.898;7.660;2023-01-05T08:31:05;7.70;99.90
42841;DHT22;28491;46.898;7.660;2023-01-05T08:33:31;7.80;99.90
42841;DHT22;28491;46.898;7.660;2023-01-05T08:35:56;7.80;99.90
42841;DHT22;28491;46.898;7.660;2023-01-05T08:38:22;7.80;99.90
42841;DHT22;28491;46.898;7.660;2023-01-05T08:40:48;7.80;99.90
42841;DHT22;28491;46.898;7.660;2023-01-05T08:43:14;7.80;99.90
42841;DHT22;28491;46.898;7.660;2023-01-05T08:45:40;7.80;99.90
42841;DHT22;28491;46.898;7.660;2023-01-05T08:48:05;7.90;99.90
42841;DHT22;28491;46.898;7.660;2023-01-05T08:50:31;7.90;99.90
42841;DHT22;28491;46.898;7.660;2023-01-05T08:52:57;7.90;99.90
42841;DHT22;28491;46.898;7.660;2023-01-05T08:55:22;7.90;99.90
42841;DHT22;28491;46.898;7.660;2023-01-05T08:57:48;7.90;99.90
42841;DHT22;28491;46.898;7.660;2023-01-05T09:00:15;7.90;99.90
42841;DHT22;28491;46.898;7.660;2023-01-05T09:02:44;7.90;99.90
42841;DHT22;28491;46.898;7.660;2023-01-05T09:05:10;7.90;99.90
42841;DHT22;28491;46.898;7.660;2023-01-05T09:07:35;7.90;99.90
42841;DHT22;28491;46.898;7.660;2023-01-05T09:10:02;7.90;99.90
42841;DHT22;28491;46.898;7.660;2023-01-05T09:12:28;7.90;99.90
42841;DHT22;28491;46.898;7.660;2023-01-05T09:14:53;7.90;99.90
42841;DHT22;28491;46.898;7.660;2023-01-05T09:17:19;7.90;99.90
42841;DHT22;28491;46.898;7.660;2023-01-05T09:19:45;7.90;99.90
42841;DHT22;28491;46.898;7.660;2023-01-05T09:22:10;7.90;99.90
42841;DHT22;28491;46.898;7.660;2023-01-05T09:24:36;7.90;99.90
42841;DHT22;28491;46.898;7.660;2023-01-05T09:27:01;7.90;99.90
42841;DHT22;28491;46.898;7.660;2023-01-05T09:29:28;7.90;99.90
42841;DHT22;28491;46.898;7.660;2023-01-05T09:31:53;7.90;99.90
42841;DHT22;28491;46.898;7.660;2023-01-05T09:34:19;8.00;99.90
42841;DHT22;28491;46.898;7.660;2023-01-05T09:36:45;8.00;99.90
42841;DHT22;28491;46.898;7.660;2023-01-05T09:39:10;8.00;99.90
42841;DHT22;28491;46.898;7.660;2023-01-05T09:41:41;8.00;99.90
42841;DHT22;28491;46.898;7.660;2023-01-05T09:44:20;8.00;99.90
42841;DHT22;28491;46.898;7.660;2023-01-05T09:46:49;8.00;99.90
42841;DHT22;28491;46.898;7.660;2023-01-05T09:49:19;8.00;99.90
42841;DHT22;28491;46.898;7.660;2023-01-05T09:51:45;8.10;99.90
42841;DHT22;28491;46.898;7.660;2023-01-05T09:54:15;8.10;99.90
42841;DHT22;28491;46.898;7.660;2023-01-05T09:56:44;8.20;99.90
42841;DHT22;28491;46.898;7.660;2023-01-05T10:01:47;8.40;99.90
42841;DHT22;28491;46.898;7.660;2023-01-05T10:04:21;8.50;99.90
42841;DHT22;28491;46.898;7.660;2023-01-05T10:06:53;8.60;99.90
42841;DHT22;28491;46.898;7.660;2023-01-05T10:09:22;8.70;99.90
42841;DHT22;28491;46.898;7.660;2023-01-05T10:12:17;8.80;99.90
42841;DHT22;28491;46.898;7.660;2023-01-05T10:15:14;8.80;99.90
42841;DHT22;28491;46.898;7.660;2023-01-05T10:17:40;8.90;99.90
42841;DHT22;28491;46.898;7.660;2023-01-05T10:20:28;9.00;99.90
42841;DHT22;28491;46.898;7.660;2023-01-05T10:23:28;9.20;99.90
42841;DHT22;28491;46.898;7.660;2023-01-05T10:28:48;9.80;99.90
42841;DHT22;28491;46.898;7.660;2023-01-05T10:31:26;10.40;99.90
42841;DHT22;28491;46.898;7.660;2023-01-05T10:34:21;10.50;99.90
42841;DHT22;28491;46.898;7.660;2023-01-05T10:36:56;10.40;99.90
42841;DHT22;28491;46.898;7.660;2023-01-05T10:40:06;10.30;99.90
42841;DHT22;28491;46.898;7.660;2023-01-05T10:45:12;10.20;99.90
42841;DHT22;28491;46.898;7.660;2023-01-05T10:47:39;10.00;99.40
42841;DHT22;28491;46.898;7.660;2023-01-05T10:50:29;10.00;99.90
42841;DHT22;28491;46.898;7.660;2023-01-05T10:52:57;10.00;99.90
42841;DHT22;28491;46.898;7.660;2023-01-05T10:55:23;9.90;99.90
42841;DHT22;28491;46.898;7.660;2023-01-05T10:57:49;9.80;99.90
42841;DHT22;28491;46.898;7.660;2023-01-05T11:00:19;9.90;99.90
42841;DHT22;28491;46.898;7.660;2023-01-05T11:05:32;10.30;99.90
42841;DHT22;28491;46.898;7.660;2023-01-05T11:08:05;10.50;99.90
42841;DHT22;28491;46.898;7.660;2023-01-05T11:10:38;10.70;99.90
42841;DHT22;28491;46.898;7.660;2023-01-05T11:13:36;10.80;99.90
42841;DHT22;28491;46.898;7.660;2023-01-05T11:18:55;11.00;99.90
42841;DHT22;28491;46.898;7.660;2023-01-05T11:21:27;11.00;99.90
42841;DHT22;28491;46.898;7.660;2023-01-05T11:23:57;11.10;98.50
42841;DHT22;28491;46.898;7.660;2023-01-05T11:26:46;11.10;97.70
42841;DHT22;28491;46.898;7.660;2023-01-05T11:29:14;11.00;98.70
42841;DHT22;28491;46.898;7.660;2023-01-05T11:34:33;10.80;99.50
42841;DHT22;28491;46.898;7.660;2023-01-05T11:39:41;10.70;99.90
42841;DHT22;28491;46.898;7.660;2023-01-05T11:42:17;10.60;99.90
42841;DHT22;28491;46.898;7.660;2023-01-05T11:44:58;10.50;99.90
42841;DHT22;28491;46.898;7.660;2023-01-05T11:48:18;10.50;99.90
42841;DHT22;28491;46.898;7.660;2023-01-05T11:50:24;10.40;99.90
42841;DHT22;28491;46.898;7.660;2023-01-05T11:52:55;10.30;99.90
42841;DHT22;28491;46.898;7.660;2023-01-05T12:08:45;10.70;99.90
42841;DHT22;28491;46.898;7.660;2023-01-05T12:11:17;10.80;99.90
42841;DHT22;28491;46.898;7.660;2023-01-05T12:13:57;10.80;99.90
42841;DHT22;28491;46.898;7.660;2023-01-05T12:16:52;10.80;99.10
42841;DHT22;28491;46.898;7.660;2023-01-05T12:19:52;10.90;99.20
42841;DHT22;28491;46.898;7.660;2023-01-05T12:25:25;11.00;97.90
42841;DHT22;28491;46.898;7.660;2023-01-05T12:30:38;11.30;96.80
42841;DHT22;28491;46.898;7.660;2023-01-05T12:33:17;11.40;96.40
42841;DHT22;28491;46.898;7.660;2023-01-05T12:49:16;11.40;93.60
42841;DHT22;28491;46.898;7.660;2023-01-05T12:54:43;11.20;89.60
42841;DHT22;28491;46.898;7.660;2023-01-05T12:57:14;11.20;90.00
42841;DHT22;28491;46.898;7.660;2023-01-05T12:59:51;11.30;92.80
42841;DHT22;28491;46.898;7.660;2023-01-05T13:02:32;11.40;96.10
42841;DHT22;28491;46.898;7.660;2023-01-05T13:07:59;11.10;90.10
42841;DHT22;28491;46.898;7.660;2023-01-05T13:13:05;11.20;95.50
42841;DHT22;28491;46.898;7.660;2023-01-05T13:15:45;11.20;95.40
42841;DHT22;28491;46.898;7.660;2023-01-05T13:18:16;11.10;90.30
42841;DHT22;28491;46.898;7.660;2023-01-05T13:20:52;11.10;91.00
42841;DHT22;28491;46.898;7.660;2023-01-05T13:25:49;11.20;94.10
42841;DHT22;28491;46.898;7.660;2023-01-05T13:28:18;11.20;94.40
42841;DHT22;28491;46.898;7.660;2023-01-05T13:30:56;11.20;94.80
42841;DHT22;28491;46.898;7.660;2023-01-05T13:33:39;11.20;92.60
42841;DHT22;28491;46.898;7.660;2023-01-05T13:36:22;11.20;95.70
42841;DHT22;28491;46.898;7.660;2023-01-05T13:45:00;11.30;98.00
42841;DHT22;28491;46.898;7.660;2023-01-05T13:50:31;11.20;95.70
42841;DHT22;28491;46.898;7.660;2023-01-05T13:53:14;11.20;97.60
42841;DHT22;28491;46.898;7.660;2023-01-05T13:56:01;11.20;98.80
42841;DHT22;28491;46.898;7.660;2023-01-05T13:58:39;11.30;98.50
42841;DHT22;28491;46.898;7.660;2023-01-05T14:01:13;11.20;98.20
42841;DHT22;28491;46.898;7.660;2023-01-05T14:03:45;11.20;97.60
42841;DHT22;28491;46.898;7.660;2023-01-05T14:06:24;11.30;98.10
42841;DHT22;28491;46.898;7.660;2023-01-05T14:09:06;11.30;98.40
42841;DHT22;28491;46.898;7.660;2023-01-05T14:11:33;11.20;96.60
42841;DHT22;28491;46.898;7.660;2023-01-05T14:14:02;11.20;96.90
42841;DHT22;28491;46.898;7.660;2023-01-05T14:24:30;11.10;97.00
42841;DHT22;28491;46.898;7.660;2023-01-05T14:27:15;11.10;98.10
42841;DHT22;28491;46.898;7.660;2023-01-05T14:32:24;11.10;97.90
42841;DHT22;28491;46.898;7.660;2023-01-05T14:34:56;11.00;96.70
42841;DHT22;28491;46.898;7.660;2023-01-05T14:37:28;11.00;97.10
42841;DHT22;28491;46.898;7.660;2023-01-05T14:39:57;11.00;97.00
42841;DHT22;28491;46.898;7.660;2023-01-05T14:42:31;10.90;97.20
42841;DHT22;28491;46.898;7.660;2023-01-05T14:45:01;10.90;97.70
42841;DHT22;28491;46.898;7.660;2023-01-05T14:47:47;10.80;98.40
42841;DHT22;28491;46.898;7.660;2023-01-05T14:53:13;10.60;98.10
42841;DHT22;28491;46.898;7.660;2023-01-05T15:01:36;10.40;99.10
42841;DHT22;28491;46.898;7.660;2023-01-05T15:04:14;10.30;99.70
42841;DHT22;28491;46.898;7.660;2023-01-05T15:18:21;10.00;99.90
42841;DHT22;28491;46.898;7.660;2023-01-05T15:20:58;9.90;99.90
42841;DHT22;28491;46.898;7.660;2023-01-05T15:32:01;9.60;99.90
42841;DHT22;28491;46.898;7.660;2023-01-05T15:34:45;9.50;99.90
42841;DHT22;28491;46.898;7.660;2023-01-05T15:37:21;9.50;99.90
42841;DHT22;28491;46.898;7.660;2023-01-05T15:39:52;9.40;99.90
42841;DHT22;28491;46.898;7.660;2023-01-05T15:42:27;9.40;99.90
42841;DHT22;28491;46.898;7.660;2023-01-05T15:44:54;9.30;99.90
42841;DHT22;28491;46.898;7.660;2023-01-05T15:47:23;9.20;99.90
42841;DHT22;28491;46.898;7.660;2023-01-05T15:49:50;9.10;99.90
42841;DHT22;28491;46.898;7.660;2023-01-05T15:52:36;9.10;99.90
42841;DHT22;28491;46.898;7.660;2023-01-05T15:55:22;9.00;99.90
42841;DHT22;28491;46.898;7.660;2023-01-05T15:57:57;8.80;99.90
42841;DHT22;28491;46.898;7.660;2023-01-05T16:00:28;8.60;99.90
42841;DHT22;28491;46.898;7.660;2023-01-05T16:02:55;8.60;99.90
42841;DHT22;28491;46.898;7.660;2023-01-05T16:05:24;8.50;99.90
42841;DHT22;28491;46.898;7.660;2023-01-05T16:07:55;8.50;99.90
42841;DHT22;28491;46.898;7.660;2023-01-05T16:10:33;8.40;99.90
42841;DHT22;28491;46.898;7.660;2023-01-05T16:13:22;8.30;99.90
42841;DHT22;28491;46.898;7.660;2023-01-05T16:15:52;8.40;99.90
42841;DHT22;28491;46.898;7.660;2023-01-05T16:18:34;8.30;99.90
42841;DHT22;28491;46.898;7.660;2023-01-05T16:21:12;8.00;99.90
42841;DHT22;28491;46.898;7.660;2023-01-05T16:23:42;8.00;99.90
42841;DHT22;28491;46.898;7.660;2023-01-05T16:26:15;8.00;99.90
42841;DHT22;28491;46.898;7.660;2023-01-05T16:28:41;7.90;99.90
42841;DHT22;28491;46.898;7.660;2023-01-05T16:31:27;7.80;99.90
42841;DHT22;28491;46.898;7.660;2023-01-05T16:34:05;7.70;99.90
42841;DHT22;28491;46.898;7.660;2023-01-05T16:36:36;7.70;99.90
42841;DHT22;28491;46.898;7.660;2023-01-05T16:39:21;7.70;99.90
42841;DHT22;28491;46.898;7.660;2023-01-05T16:41:47;7.60;99.90
42841;DHT22;28491;46.898;7.660;2023-01-05T16:44:32;7.30;99.90
42841;DHT22;28491;46.898;7.660;2023-01-05T16:47:08;7.10;99.90
42841;DHT22;28491;46.898;7.660;2023-01-05T16:49:38;7.20;99.90
42841;DHT22;28491;46.898;7.660;2023-01-05T16:52:07;7.30;99.90
42841;DHT22;28491;46.898;7.660;2023-01-05T16:54:36;7.30;99.90
42841;DHT22;28491;46.898;7.660;2023-01-05T16:57:31;7.30;99.90
42841;DHT22;28491;46.898;7.660;2023-01-05T16:59:57;7.20;99.90
42841;DHT22;28491;46.898;7.660;2023-01-05T17:02:29;7.10;99.90
42841;DHT22;28491;46.898;7.660;2023-01-05T17:04:55;7.00;99.90
42841;DHT22;28491;46.898;7.660;2023-01-05T17:07:20;7.00;99.90
42841;DHT22;28491;46.898;7.660;2023-01-05T17:09:46;7.20;99.90
42841;DHT22;28491;46.898;7.660;2023-01-05T17:12:12;7.20;99.90
42841;DHT22;28491;46.898;7.660;2023-01-05T17:14:39;7.30;99.90
42841;DHT22;28491;46.898;7.660;2023-01-05T17:17:08;7.20;99.90
42841;DHT22;28491;46.898;7.660;2023-01-05T17:19:35;7.10;99.90
42841;DHT22;28491;46.898;7.660;2023-01-05T17:22:01;7.00;99.90
42841;DHT22;28491;46.898;7.660;2023-01-05T17:24:31;6.90;99.90
42841;DHT22;28491;46.898;7.660;2023-01-05T17:26:57;6.80;99.90
42841;DHT22;28491;46.898;7.660;2023-01-05T17:29:25;6.60;99.90
42841;DHT22;28491;46.898;7.660;2023-01-05T17:31:51;6.60;99.90
42841;DHT22;28491;46.898;7.660;2023-01-05T17:34:17;6.50;99.90
42841;DHT22;28491;46.898;7.660;2023-01-05T17:36:44;6.50;99.90
42841;DHT22;28491;46.898;7.660;2023-01-05T17:39:15;6.40;99.90
42841;DHT22;28491;46.898;7.660;2023-01-05T17:41:41;6.30;99.90
42841;DHT22;28491;46.898;7.660;2023-01-05T17:44:07;6.30;99.90
42841;DHT22;28491;46.898;7.660;2023-01-05T17:46:38;6.20;99.90
42841;DHT22;28491;46.898;7.660;2023-01-05T17:49:06;6.20;99.90
42841;DHT22;28491;46.898;7.660;2023-01-05T17:51:32;6.30;99.90
42841;DHT22;28491;46.898;7.660;2023-01-05T17:53:58;6.40;99.90
42841;DHT22;28491;46.898;7.660;2023-01-05T17:56:24;6.40;99.90
42841;DHT22;28491;46.898;7.660;2023-01-05T17:58:50;6.40;99.90
42841;DHT22;28491;46.898;7.660;2023-01-05T18:01:17;6.20;99.90
42841;DHT22;28491;46.898;7.660;2023-01-05T18:03:43;6.10;99.90
42841;DHT22;28491;46.898;7.660;2023-01-05T18:06:09;6.00;99.90
42841;DHT22;28491;46.898;7.660;2023-01-05T18:08:35;6.00;99.90
42841;DHT22;28491;46.898;7.660;2023-01-05T18:11:05;5.90;99.90